Map

Track Data

SID SEASON NUMBER BASIN SUBBASIN NAME ISO_TIME NATURE LAT LON WMO_WIND WMO_PRES WMO_AGENCY TRACK_TYPE DIST2LAND LANDFALL IFLAG USA_AGENCY USA_ATCF_ID USA_LAT USA_LON USA_RECORD USA_STATUS USA_WIND USA_PRES USA_SSHS USA_R34_NE USA_R34_SE USA_R34_SW USA_R34_NW USA_R50_NE USA_R50_SE USA_R50_SW USA_R50_NW USA_R64_NE USA_R64_SE USA_R64_SW USA_R64_NW USA_POCI USA_ROCI USA_RMW USA_EYE TOKYO_LAT TOKYO_LON TOKYO_GRADE TOKYO_WIND TOKYO_PRES TOKYO_R50_DIR TOKYO_R50_LONG TOKYO_R50_SHORT TOKYO_R30_DIR TOKYO_R30_LONG TOKYO_R30_SHORT TOKYO_LAND CMA_LAT CMA_LON CMA_CAT CMA_WIND CMA_PRES HKO_LAT HKO_LON HKO_CAT HKO_WIND HKO_PRES NEWDELHI_LAT NEWDELHI_LON NEWDELHI_GRADE NEWDELHI_WIND NEWDELHI_PRES NEWDELHI_CI NEWDELHI_DP NEWDELHI_POCI REUNION_LAT REUNION_LON REUNION_TYPE REUNION_WIND REUNION_PRES REUNION_TNUM REUNION_CI REUNION_RMW REUNION_R34_NE REUNION_R34_SE REUNION_R34_SW REUNION_R34_NW REUNION_R50_NE REUNION_R50_SE REUNION_R50_SW REUNION_R50_NW REUNION_R64_NE REUNION_R64_SE REUNION_R64_SW REUNION_R64_NW BOM_LAT BOM_LON BOM_TYPE BOM_WIND BOM_PRES BOM_TNUM BOM_CI BOM_RMW BOM_R34_NE BOM_R34_SE BOM_R34_SW BOM_R34_NW BOM_R50_NE BOM_R50_SE BOM_R50_SW BOM_R50_NW BOM_R64_NE BOM_R64_SE BOM_R64_SW BOM_R64_NW BOM_ROCI BOM_POCI BOM_EYE BOM_POS_METHOD BOM_PRES_METHOD NADI_LAT NADI_LON NADI_CAT NADI_WIND NADI_PRES WELLINGTON_LAT WELLINGTON_LON WELLINGTON_WIND WELLINGTON_PRES DS824_LAT DS824_LON DS824_STAGE DS824_WIND DS824_PRES TD9636_LAT TD9636_LON TD9636_STAGE TD9636_WIND TD9636_PRES TD9635_LAT TD9635_LON TD9635_WIND TD9635_PRES TD9635_ROCI NEUMANN_LAT NEUMANN_LON NEUMANN_CLASS NEUMANN_WIND NEUMANN_PRES MLC_LAT MLC_LON MLC_CLASS MLC_WIND MLC_PRES USA_GUST BOM_GUST BOM_GUST_PER REUNION_GUST REUNION_GUST_PER USA_SEAHGT USA_SEARAD_NE USA_SEARAD_SE USA_SEARAD_SW USA_SEARAD_NW STORM_SPEED STORM_DIR
1932034S18053 1932 11 SI MM NOT_NAMED 1932-02-02 18:00:00 NR -17.5000 53.0000 spur-merge 342 342 __________O___ -1 -17.5000 53.0000 1 6 185
1932034S18053 1932 11 SI MM NOT_NAMED 1932-02-02 21:00:00 NR -17.7842 52.9897 spur-merge 357 357 __________P___ -1 -17.7842 52.9897 1 7 176
1932034S18053 1932 11 SI MM NOT_NAMED 1932-02-03 00:00:00 TS -18.2311 53.0525 spur-merge 383 346 _________OP___ -1 -18.7000 53.2000 TC 25 -18.0747 53.0034 1 8 167
1932034S18053 1932 11 SI MM NOT_NAMED 1932-02-03 03:00:00 TS -18.6036 53.1885 spur-merge 346 299 _________PP___ -1 -19.0550 53.4349 TC 25 -18.3779 53.0653 1 8 156
1932034S18053 1932 11 SI MM NOT_NAMED 1932-02-03 06:00:00 TS -19.0000 53.4143 reunion spur-merge 299 244 _________OO___ -1 -19.4000 53.7000 TC 25 -18.7000 53.2000 1 9 147
1932034S18053 1932 11 SI MM NOT_NAMED 1932-02-03 09:00:00 TS -19.3825 53.7146 spur-merge 244 198 _________PP___ -1 -19.7225 54.0075 TC 25 -19.0425 53.4218 1 9 141
1932034S18053 1932 11 SI MM NOT_NAMED 1932-02-03 12:00:00 TS -19.6940 54.0020 spur-merge 198 160 _________OP___ -1 -20.0000 54.3000 TC 25 -19.3879 53.7040 1 8 139
1932034S18053 1932 11 SI MM NOT_NAMED 1932-02-03 15:00:00 TS -19.9684 54.2622 spur-merge 152 122 _________PP___ -1 -20.2224 54.5152 TC 25 -19.7144 54.0093 1 7 137
1932034S18053 1932 11 SI MM NOT_NAMED 1932-02-03 18:00:00 TS -20.2000 54.5000 spur-merge 122 114 _________OO___ -1 -20.4000 54.7000 TC 25 -20.0000 54.3000 1 4 146
1932034S18053 1932 11 SI MM NOT_NAMED 1932-02-03 21:00:00 TS -20.3123 54.5123 spur-merge 114 91 _________PP___ -1 -20.5424 54.8927 TC 25 -20.2097 54.5142 1 3 154
1932034S18053 1932 11 SI MM NOT_NAMED 1932-02-04 00:00:00 TS -20.5082 54.6556 spur-merge 83 45 _________OP___ -1 -20.7000 55.1000 TC 25 -20.3796 54.7085 1 6 142
1932034S18053 1932 11 SI MM NOT_NAMED 1932-02-04 03:00:00 TS -20.8045 54.9145 spur-merge 45 0 _________PP___ -1 -20.9425 55.3424 TC 25 -20.5347 54.8985 1 9 137
1932034S18053 1932 11 SI MM NOT_NAMED 1932-02-04 06:00:00 TS -21.1273 55.2818 reunion spur-merge 0 0 _________OO___ -1 -21.6000 55.1000 99 9.90000 -21.2000 55.6000 TC 25 -20.7000 55.1000 1 9 130
1932034S18053 1932 11 SI MM NOT_NAMED 1932-02-04 09:00:00 TS -21.3891 55.6627 spur-merge 10 10 _________PP___ -1 -21.3999 55.8427 TC 25 -20.9065 55.3277 1 8 124
1932034S18053 1932 11 SI MM NOT_NAMED 1932-02-04 12:00:00 TS -21.5563 55.9530 spur-merge 39 39 _________OP___ -1 -21.6000 56.1000 TC 25 -21.1273 55.5703 1 5 117
1932034S18053 1932 11 SI MM NOT_NAMED 1932-02-04 15:00:00 TS -21.6010 56.1101 spur-merge 45 45 _________PP___ -1 -21.8425 56.3925 TC 25 -21.3595 55.8278 1 5 125
1932034S18053 1932 11 SI MM NOT_NAMED 1932-02-04 18:00:00 TS -21.8500 56.4000 spur-merge 83 91 _________OO___ -1 -22.1000 56.7000 TC 25 -21.6000 56.1000 1 7 133
1932034S18053 1932 11 SI MM NOT_NAMED 1932-02-04 21:00:00 TS -22.0984 56.6929 spur-merge 129 129 _________PP___ -1 -22.3499 57.0001 TC 25 -21.8468 56.3857 1 7 132
1932034S18053 1932 11 SI MM NOT_NAMED 1932-02-05 00:00:00 TS -22.3500 56.9925 spur-merge 166 166 _________OP___ -1 -22.6000 57.3000 TC 25 -22.0999 56.6851 1 8 132
1932034S18053 1932 11 SI MM NOT_NAMED 1932-02-05 03:00:00 TS -22.6053 57.2960 spur-merge 212 212 _________PP___ -1 -22.8574 57.6001 TC 25 -22.3531 56.9920 1 8 132
1932034S18053 1932 11 SI MM NOT_NAMED 1932-02-05 06:00:00 TS -22.8500 57.6000 reunion spur-merge 257 257 _________OO___ -1 -23.1000 57.9000 TC 25 -22.6000 57.3000 1 7 130
1932034S18053 1932 11 SI MM NOT_NAMED 1932-02-05 09:00:00 TS -23.0581 57.8906 spur-merge 291 291 _________PP___ -1 -23.2924 58.1928 TC 25 -22.8237 57.5885 1 7 128
1932034S18053 1932 11 SI MM NOT_NAMED 1932-02-05 12:00:00 TS -23.2710 58.1892 spur-merge 317 317 _________OP___ -1 -23.5000 58.5000 TC 25 -23.0420 57.8785 1 7 130
1932034S18053 1932 11 SI MM NOT_NAMED 1932-02-05 15:00:00 TS -23.5284 58.5071 spur-merge 345 345 _________PP___ -1 -23.7924 58.8350 TC 25 -23.2643 58.1792 1 8 131
1932034S18053 1932 11 SI MM NOT_NAMED 1932-02-05 18:00:00 TS -23.8000 58.8500 spur-merge 389 385 _________OO___ -1 -24.1000 59.2000 TC 25 -23.5000 58.5000 1 8 129
1932034S18053 1932 11 SI MM NOT_NAMED 1932-02-05 21:00:00 TS -24.0372 59.1964 spur-merge 420 420 _________PP___ -1 -24.3348 59.5706 TC 25 -23.7397 58.8222 1 8 127
1932034S18053 1932 11 SI MM NOT_NAMED 1932-02-06 00:00:00 TS -24.2982 59.5848 spur-merge 467 467 _________OP___ -1 -24.6000 60.0000 TC 25 -23.9964 59.1695 1 10 128
1932034S18053 1932 11 SI MM NOT_NAMED 1932-02-06 03:00:00 TS -24.6287 60.0385 spur-merge 515 515 _________PP___ -1 -24.9774 60.5200 TC 25 -24.2800 59.5570 1 11 129
1932034S18053 1932 11 SI MM NOT_NAMED 1932-02-06 06:00:00 TS -25.0000 60.5500 reunion spur-merge 584 579 _________OO___ -1 -25.4000 61.1000 TC 25 -24.6000 60.0000 1 12 128
1932034S18053 1932 11 SI MM NOT_NAMED 1932-02-06 09:00:00 TS -25.3759 61.0879 spur-merge 648 648 _________PP___ -1 -25.7922 61.6781 TC 25 -24.9597 60.4976 1 13 127
1932034S18053 1932 11 SI MM NOT_NAMED 1932-02-06 12:00:00 TS -25.7772 61.6767 spur-merge 719 719 _________OP___ -1 -26.2000 62.3000 TC 25 -25.3545 61.0534 1 14 127
1932034S18053 1932 11 SI MM NOT_NAMED 1932-02-06 15:00:00 TS -26.2109 62.3213 spur-merge 791 791 _________PP___ -1 -26.6499 62.9851 TC 25 -25.7719 61.6575 1 15 126
1932034S18053 1932 11 SI MM NOT_NAMED 1932-02-06 18:00:00 TS -26.6500 63.0000 spur-merge 869 869 _________OO___ -1 -27.1000 63.7000 TC 25 -26.2000 62.3000 1 15 125
1932034S18053 1932 11 SI MM NOT_NAMED 1932-02-06 21:00:00 TS -27.0480 63.6527 spur-merge 948 948 _________PP___ -1 -27.4917 64.3714 TC 25 -26.6043 62.9340 1 15 124
1932034S18053 1932 11 SI MM NOT_NAMED 1932-02-07 00:00:00 TS -27.4589 64.3532 spur-merge 1036 1036 _________OP___ -1 -27.9000 65.1000 TC 25 -27.0178 63.6064 1 16 123
1932034S18053 1932 11 SI MM NOT_NAMED 1932-02-07 03:00:00 TS -27.9162 65.1478 spur-merge 1115 1115 _________PP___ -1 -28.3850 65.9702 TC 25 -27.4475 64.3254 1 17 123
1932034S18053 1932 11 SI MM NOT_NAMED 1932-02-07 06:00:00 TS -28.4000 66.0000 spur-merge 1217 1217 _________OO___ -1 -28.9000 66.9000 TC 25 -27.9000 65.1000 1 18 123
1932034S18053 1932 11 SI MM NOT_NAMED 1932-02-07 09:00:00 TS -28.8991 66.8847 spur-merge 1319 1319 _________PP___ -1 -29.4072 67.8154 TC 25 -28.3911 65.9540 1 19 123
1932034S18053 1932 11 SI MM NOT_NAMED 1932-02-07 12:00:00 TS -29.4004 67.7808 spur-merge 1421 1421 _________OP___ -1 -29.9000 68.7000 TC 25 -28.9007 66.8616 1 18 123
1932034S18053 1932 11 SI MM NOT_NAMED 1932-02-07 15:00:00 TS -29.8869 68.6486 spur-merge 1516 1516 _________PP___ -1 -30.3641 69.5085 TC 25 -29.4098 67.7887 1 17 122
1932034S18053 1932 11 SI MM NOT_NAMED 1932-02-07 18:00:00 TS -30.2857 69.3857 spur-merge 1603 1603 _________OO___ -1 -30.8000 70.3000 TC 25 -29.9000 68.7000 1 15 121
1932034S18053 1932 11 SI MM NOT_NAMED 1932-02-07 21:00:00 TS -30.6420 70.0894 spur-merge 1676 1676 _________PP___ -1 -31.2089 71.1334 TC 25 -30.3585 69.5674 1 14 120
1932034S18053 1932 11 SI MM NOT_NAMED 1932-02-08 00:00:00 TS -30.9921 70.7976 spur-merge 1756 1756 _________OP___ -1 -31.6000 72.0000 TC 25 -30.7894 70.3968 1 11 120
1932034S18053 1932 11 SI MM NOT_NAMED 1932-02-08 03:00:00 NR -31.2008 71.2027 spur-merge 1799 1799 __________P___ -1 TC -31.2008 71.2027 1 12 121
1932034S18053 1932 11 SI MM NOT_NAMED 1932-02-08 06:00:00 NR -31.6000 72.0000 spur-merge 1887 __________O___ -1 -31.6000 72.0000 1 16 120

About IBTrACS Database

This database is a web-friendly format of International Best Track Archive for Climate Stewardship (IBTrACS), a global best track data archive curated by NOAA dating back to 1842.

Updated: 2021-12-06